Time;durP1;ratioP1;P1;durP2;ratioP2;P2;SDS_P1;SDS_P2;PMS_P1;PMS_P2;Temp;Humidity;BMP_temperature;BMP_pressure;BME280_temperature;BME280_humidity;BME280_pressure;Samples;Min_cycle;Max_cycle;Signal;HPM_P1;HPM_P2
2022/09/30 00:00:42;;;;;;;5.60;3.60;;;;;;;12.45;63.42;100485.75;4862803;28;96961;-50
2022/09/30 00:03:07;;;;;;;4.00;3.20;;;;;;;12.43;63.45;100496.50;4862807;28;99970;-51
2022/09/30 00:05:33;;;;;;;4.30;3.67;;;;;;;12.40;63.44;100501.06;4872454;28;97626;-50
2022/09/30 00:07:58;;;;;;;9.07;3.60;;;;;;;12.38;63.55;100495.31;4853266;28;108352;-51
2022/09/30 00:10:24;;;;;;;4.00;3.60;;;;;;;12.36;63.52;100492.28;4877903;28;96930;-50
2022/09/30 00:12:51;;;;;;;4.50;3.90;;;;;;;12.33;63.60;100500.81;4863877;28;97464;-50
2022/09/30 00:15:17;;;;;;;3.67;3.37;;;;;;;12.32;63.49;100493.81;4855624;28;97393;-50
2022/09/30 00:17:42;;;;;;;3.93;3.00;;;;;;;12.31;63.60;100503.34;4870020;28;98091;-50
2022/09/30 00:20:08;;;;;;;4.10;3.50;;;;;;;12.29;63.63;100506.63;4867454;28;97861;-51
2022/09/30 00:22:34;;;;;;;6.37;3.97;;;;;;;12.29;63.48;100503.09;4864313;28;97965;-50
2022/09/30 00:24:59;;;;;;;8.00;4.07;;;;;;;12.28;63.51;100491.31;4867069;28;96939;-51
2022/09/30 00:27:24;;;;;;;6.30;3.27;;;;;;;12.26;63.46;100501.34;4873376;28;97452;-50
2022/09/30 00:29:50;;;;;;;4.53;3.33;;;;;;;12.24;63.64;100493.59;4855177;28;97071;-50
2022/09/30 00:32:15;;;;;;;4.40;3.40;;;;;;;12.21;63.42;100502.88;4869808;28;97613;-51
2022/09/30 00:34:41;;;;;;;3.33;3.03;;;;;;;12.18;63.66;100497.63;4853995;28;108032;-50
2022/09/30 00:37:07;;;;;;;10.03;3.83;;;;;;;12.15;63.48;100493.88;4868276;28;101811;-50
2022/09/30 00:39:36;;;;;;;4.40;4.03;;;;;;;12.11;63.65;100504.41;4866397;28;97140;-50
2022/09/30 00:42:05;;;;;;;6.20;3.53;;;;;;;12.07;63.47;100503.19;4857261;28;97211;-50
2022/09/30 00:44:51;;;;;;;6.30;3.80;;;;;;;12.04;63.67;100511.19;4868208;28;98736;-51
2022/09/30 00:47:47;;;;;;;9.90;3.43;;;;;;;12.00;63.57;100504.44;4852239;28;97549;-50
2022/09/30 00:50:13;;;;;;;4.30;3.90;;;;;;;11.96;63.54;100509.47;4852955;28;96732;-51
2022/09/30 00:52:38;;;;;;;9.93;3.90;;;;;;;11.92;63.46;100512.50;4863984;28;97505;-50
2022/09/30 00:55:07;;;;;;;4.57;3.67;;;;;;;11.87;63.40;100510.50;4874820;28;97007;-50
2022/09/30 00:57:35;;;;;;;4.23;3.30;;;;;;;11.85;63.53;100512.25;4849878;28;97364;-51
2022/09/30 01:00:00;;;;;;;4.40;4.00;;;;;;;11.84;63.62;100503.22;4866421;28;96868;-50
2022/09/30 01:02:26;;;;;;;4.90;4.50;;;;;;;11.80;63.63;100505.50;4862826;28;97704;-50
2022/09/30 01:04:53;;;;;;;6.73;4.17;;;;;;;11.78;63.54;100502.50;4876669;28;107624;-50
2022/09/30 01:07:21;;;;;;;8.73;3.50;;;;;;;11.73;63.54;100503.25;4871743;28;97765;-50
2022/09/30 01:09:48;;;;;;;4.80;3.90;;;;;;;11.68;63.51;100514.28;4853114;28;96993;-50
2022/09/30 01:12:18;;;;;;;3.60;3.30;;;;;;;11.69;63.52;100510.25;4865427;28;97510;-49
2022/09/30 01:14:46;;;;;;;4.00;3.70;;;;;;;11.65;63.54;100502.22;4869047;28;97118;-50
2022/09/30 01:17:29;;;;;;;3.87;3.57;;;;;;;11.64;63.54;100513.75;4854794;28;98985;-50
2022/09/30 01:20:14;;;;;;;4.13;3.63;;;;;;;11.61;63.61;100521.03;4856709;28;98054;-51
2022/09/30 01:23:24;;;;;;;5.33;3.47;;;;;;;11.59;63.96;100509.75;4872773;28;97446;-51
2022/09/30 01:26:00;;;;;;;3.80;3.50;;;;;;;11.60;63.74;100521.53;4866876;28;102916;-51
2022/09/30 01:28:36;;;;;;;5.43;3.97;;;;;;;11.58;63.67;100516.50;4854792;28;97020;-50
2022/09/30 01:31:24;;;;;;;3.20;3.00;;;;;;;11.56;63.74;100510.00;4872348;28;97495;-50
2022/09/30 01:34:27;;;;;;;4.30;3.87;;;;;;;11.54;63.87;100521.53;4860414;28;100723;-51
2022/09/30 01:37:10;;;;;;;3.43;3.13;;;;;;;11.51;63.73;100524.53;4867824;28;101871;-50
2022/09/30 01:39:36;;;;;;;5.13;3.40;;;;;;;11.50;63.68;100525.78;4853254;28;97063;-51
2022/09/30 01:42:42;;;;;;;3.73;3.43;;;;;;;11.48;63.39;100525.53;4879250;28;97785;-51
2022/09/30 01:45:17;;;;;;;3.50;3.20;;;;;;;11.38;63.59;100522.25;4904529;28;101092;-50
2022/09/30 01:47:53;;;;;;;3.90;3.50;;;;;;;11.34;63.58;100524.53;4852367;28;96698;-50
2022/09/30 01:50:22;;;;;;;3.83;3.50;;;;;;;11.34;63.57;100524.53;4870629;28;97285;-50
2022/09/30 01:53:07;;;;;;;4.13;3.70;;;;;;;11.33;63.54;100525.78;4848753;28;97493;-50
2022/09/30 01:55:46;;;;;;;3.70;3.40;;;;;;;11.30;63.67;100522.03;4861128;28;97130;-51
2022/09/30 01:58:34;;;;;;;5.60;3.50;;;;;;;11.29;63.57;100526.03;4860380;28;97257;-50
2022/09/30 02:01:04;;;;;;;5.20;3.20;;;;;;;11.29;63.66;100525.28;4859244;28;97399;-51
2022/09/30 02:03:37;;;;;;;3.60;3.13;;;;;;;11.29;63.81;100530.81;4870252;28;97547;-50
2022/09/30 02:06:07;;;;;;;3.70;3.40;;;;;;;11.29;63.81;100520.50;4866581;28;103126;-50
2022/09/30 02:08:46;;;;;;;4.00;3.23;;;;;;;11.30;63.93;100527.53;4854444;28;96946;-50
2022/09/30 02:11:20;;;;;;;4.20;3.80;;;;;;;11.27;63.69;100527.78;4863698;28;97367;-50
2022/09/30 02:13:52;;;;;;;4.03;3.40;;;;;;;11.26;63.77;100531.78;4861368;28;97200;-50
2022/09/30 02:16:29;;;;;;;6.13;3.40;;;;;;;11.22;63.77;100534.03;4871353;28;100626;-50
2022/09/30 02:19:39;;;;;;;5.00;3.00;;;;;;;11.20;63.86;100536.53;4871498;28;100055;-50
2022/09/30 02:22:15;;;;;;;3.27;3.07;;;;;;;11.16;63.58;100536.03;4869963;28;97611;-51
2022/09/30 02:24:44;;;;;;;3.80;3.50;;;;;;;11.13;63.66;100542.53;4851774;28;97236;-51
2022/09/30 02:27:18;;;;;;;4.20;3.80;;;;;;;11.11;63.61;100542.28;4871916;28;96922;-50
2022/09/30 02:29:49;;;;;;;6.07;3.60;;;;;;;11.05;63.56;100541.53;4866390;28;100259;-50
2022/09/30 02:32:23;;;;;;;4.40;4.00;;;;;;;11.01;63.63;100543.75;4855300;28;97330;-50
2022/09/30 02:34:54;;;;;;;3.90;3.60;;;;;;;11.00;63.65;100545.00;4869182;28;96627;-51
2022/09/30 02:37:43;;;;;;;4.33;3.97;;;;;;;10.96;63.57;100550.78;4866206;28;97790;-50
2022/09/30 02:40:15;;;;;;;4.30;3.90;;;;;;;10.93;63.51;100549.00;4853187;28;100183;-51
2022/09/30 02:42:44;;;;;;;4.40;3.80;;;;;;;10.92;63.54;100557.78;4865203;28;97471;-50
2022/09/30 02:45:15;;;;;;;6.00;3.70;;;;;;;10.90;63.81;100549.25;4873115;28;97093;-50
2022/09/30 02:47:40;;;;;;;4.70;3.93;;;;;;;10.87;63.62;100553.75;4873368;28;101812;-50
2022/09/30 02:50:38;;;;;;;4.57;4.10;;;;;;;10.85;63.72;100555.50;4867584;28;97608;-50
2022/09/30 02:53:18;;;;;;;6.83;4.33;;;;;;;10.80;63.71;100550.72;4865169;28;96835;-51
2022/09/30 02:56:06;;;;;;;5.13;4.63;;;;;;;10.78;63.82;100553.22;4858997;28;99044;-50
2022/09/30 02:58:35;;;;;;;4.10;3.80;;;;;;;10.75;63.71;100554.94;4870260;28;102713;-50
2022/09/30 03:01:01;;;;;;;4.87;4.37;;;;;;;10.75;63.78;100560.44;4872876;28;102210;-50
2022/09/30 03:03:32;;;;;;;3.93;3.63;;;;;;;10.73;63.59;100564.94;4867301;28;97434;-51
2022/09/30 03:05:57;;;;;;;8.37;4.13;;;;;;;10.69;63.64;100561.69;4862344;28;97202;-51
2022/09/30 03:08:22;;;;;;;5.73;4.43;;;;;;;10.66;63.60;100570.94;4866831;28;97128;-50
2022/09/30 03:10:50;;;;;;;5.10;4.60;;;;;;;10.63;63.53;100566.41;4873352;28;96801;-50
2022/09/30 03:13:48;;;;;;;5.83;3.90;;;;;;;10.60;63.58;100572.91;4858115;28;96798;-50
2022/09/30 03:16:49;;;;;;;5.03;4.53;;;;;;;10.51;63.59;100569.13;4848528;28;97047;-51
2022/09/30 03:19:30;;;;;;;4.77;4.37;;;;;;;10.49;63.27;100573.59;4859039;28;102119;-50
2022/09/30 03:22:32;;;;;;;5.07;4.60;;;;;;;10.44;63.53;100574.34;4871053;28;98355;-50
2022/09/30 03:25:36;;;;;;;6.47;4.27;;;;;;;10.40;63.27;100571.81;4853724;28;96906;-50
2022/09/30 03:28:26;;;;;;;4.10;3.70;;;;;;;10.33;63.54;100583.28;4874516;28;97549;-50
2022/09/30 03:30:54;;;;;;;4.70;3.93;;;;;;;10.32;63.71;100578.28;4872239;28;103089;-51
2022/09/30 03:33:26;;;;;;;4.10;3.70;;;;;;;10.33;63.52;100577.78;4866216;28;97839;-50
2022/09/30 03:36:00;;;;;;;4.40;3.57;;;;;;;10.31;63.57;100588.50;4854868;28;97254;-50
2022/09/30 03:38:44;;;;;;;5.90;4.20;;;;;;;10.32;63.85;100597.53;4870753;28;97008;-50
2022/09/30 03:41:39;;;;;;;7.60;4.27;;;;;;;10.33;63.85;100597.03;4869377;28;100547;-50
2022/09/30 03:44:27;;;;;;;4.60;4.23;;;;;;;10.35;63.74;100596.56;4864650;28;101598;-50
2022/09/30 03:47:18;;;;;;;4.47;3.60;;;;;;;10.34;63.57;100601.28;4877689;28;97492;-51
2022/09/30 03:49:54;;;;;;;3.77;3.47;;;;;;;10.34;63.62;100595.03;4869459;28;97531;-51
2022/09/30 03:52:21;;;;;;;4.77;4.37;;;;;;;10.34;63.80;100606.78;4853692;28;97958;-50
2022/09/30 03:55:00;;;;;;;5.47;4.30;;;;;;;10.37;63.80;100602.31;4858918;28;96938;-50
2022/09/30 03:57:28;;;;;;;6.87;4.10;;;;;;;10.38;63.67;100601.06;4851034;28;97498;-50
2022/09/30 03:59:54;;;;;;;5.90;3.80;;;;;;;10.38;63.67;100606.53;4870905;28;97273;-50
2022/09/30 04:02:19;;;;;;;4.83;4.40;;;;;;;10.39;63.60;100608.81;4855794;28;97746;-50
2022/09/30 04:04:45;;;;;;;6.07;4.40;;;;;;;10.38;63.79;100609.28;4875448;28;97201;-50
2022/09/30 04:07:11;;;;;;;9.13;4.50;;;;;;;10.37;63.88;100600.31;4873017;28;97227;-50
2022/09/30 04:09:37;;;;;;;6.57;4.67;;;;;;;10.39;63.82;100606.06;4855026;28;97770;-50
2022/09/30 04:12:02;;;;;;;13.13;5.13;;;;;;;10.39;63.91;100603.31;4876074;28;96932;-53
2022/09/30 04:14:28;;;;;;;6.30;5.53;;;;;;;10.40;63.89;100598.56;4877293;28;97934;-50
2022/09/30 04:16:53;;;;;;;8.53;5.77;;;;;;;10.41;64.04;100608.31;4855183;28;107691;-50
2022/09/30 04:19:18;;;;;;;12.03;6.03;;;;;;;10.39;64.10;100606.06;4861879;28;110876;-50
2022/09/30 04:21:44;;;;;;;10.73;5.50;;;;;;;10.39;64.01;100603.31;4870379;28;102943;-50
2022/09/30 04:24:09;;;;;;;8.60;4.53;;;;;;;10.40;63.99;100602.06;4860884;28;109367;-50
2022/09/30 04:26:34;;;;;;;5.60;5.00;;;;;;;10.42;63.98;100602.31;4869526;28;97333;-50
2022/09/30 04:29:00;;;;;;;5.50;4.93;;;;;;;10.42;63.91;100613.31;4866566;28;115397;-50
2022/09/30 04:31:25;;;;;;;6.90;4.47;;;;;;;10.40;64.16;100612.31;4851588;28;97393;-50
2022/09/30 04:33:51;;;;;;;12.47;5.53;;;;;;;10.39;63.97;100608.06;4866534;28;97574;-50
2022/09/30 04:36:16;;;;;;;6.70;4.60;;;;;;;10.39;63.97;100610.81;4857407;28;97067;-50
2022/09/30 04:38:42;;;;;;;9.50;5.00;;;;;;;10.37;63.78;100621.56;4869602;28;97002;-51
2022/09/30 04:41:15;;;;;;;5.90;5.30;;;;;;;10.33;63.75;100626.53;4875775;28;97460;-50
2022/09/30 04:43:43;;;;;;;5.27;4.57;;;;;;;10.32;63.82;100630.53;4850770;28;97625;-50
2022/09/30 04:46:09;;;;;;;5.70;5.10;;;;;;;10.29;63.79;100629.50;4870845;28;97074;-50
2022/09/30 04:48:34;;;;;;;4.53;4.23;;;;;;;10.28;63.88;100639.00;4856847;28;112916;-51
2022/09/30 04:50:59;;;;;;;5.50;4.83;;;;;;;10.27;64.00;100642.97;4862445;28;116070;-50
2022/09/30 04:53:25;;;;;;;5.33;4.40;;;;;;;10.27;63.86;100640.22;4861572;28;98398;-50
2022/09/30 04:55:57;;;;;;;5.97;4.53;;;;;;;10.25;63.98;100637.22;4857618;28;96841;-50
2022/09/30 04:58:23;;;;;;;8.20;5.33;;;;;;;10.24;64.05;100643.22;4871203;28;96862;-50
2022/09/30 05:00:48;;;;;;;7.00;5.97;;;;;;;10.21;63.87;100647.69;4871916;28;97191;-49
2022/09/30 05:03:14;;;;;;;7.60;4.83;;;;;;;10.19;63.98;100649.44;4864721;28;116654;-50
2022/09/30 05:05:42;;;;;;;10.73;6.30;;;;;;;10.16;64.00;100648.41;4865641;28;97252;-50
2022/09/30 05:08:08;;;;;;;7.37;5.97;;;;;;;10.14;63.97;100650.13;4855657;28;96761;-51
2022/09/30 05:10:33;;;;;;;12.03;5.93;;;;;;;10.12;64.12;100647.13;4870906;28;97302;-50
2022/09/30 05:12:59;;;;;;;10.10;5.30;;;;;;;10.10;63.88;100655.84;4868699;28;96860;-50
2022/09/30 05:15:25;;;;;;;7.47;5.17;;;;;;;10.09;63.94;100653.59;4860287;28;96986;-50
2022/09/30 05:17:51;;;;;;;8.10;5.20;;;;;;;10.08;64.03;100663.06;4868021;28;97079;-55
2022/09/30 05:20:17;;;;;;;7.37;5.10;;;;;;;10.05;63.92;100667.53;4865962;28;97962;-50
2022/09/30 05:22:42;;;;;;;6.70;5.30;;;;;;;10.00;63.57;100673.75;4857890;28;96817;-50
2022/09/30 05:25:08;;;;;;;5.83;4.70;;;;;;;9.93;63.90;100676.94;4866634;28;97117;-50
2022/09/30 05:27:33;;;;;;;8.60;5.80;;;;;;;9.86;63.71;100677.38;4869260;28;109633;-50
2022/09/30 05:29:59;;;;;;;6.73;5.30;;;;;;;9.86;63.63;100680.13;4850228;28;97310;-51
2022/09/30 05:32:25;;;;;;;6.53;5.47;;;;;;;9.83;63.58;100681.09;4869404;28;97218;-50
2022/09/30 05:34:50;;;;;;;9.03;5.30;;;;;;;9.81;63.61;100697.31;4853285;28;97283;-52
2022/09/30 05:37:16;;;;;;;5.73;5.20;;;;;;;9.78;63.57;100701.03;4867249;28;96738;-50
2022/09/30 05:39:41;;;;;;;8.67;5.50;;;;;;;9.75;63.67;100694.50;4863682;28;113865;-50
2022/09/30 05:42:07;;;;;;;6.13;5.53;;;;;;;9.71;63.86;100702.22;4851093;28;96809;-50
2022/09/30 05:44:33;;;;;;;6.27;5.50;;;;;;;9.72;63.86;100703.72;4872154;28;96799;-50
2022/09/30 05:46:58;;;;;;;5.83;5.30;;;;;;;9.70;63.83;100708.94;4868571;28;97269;-50
2022/09/30 05:49:25;;;;;;;5.43;4.93;;;;;;;9.72;63.83;100708.44;4851810;28;97606;-50
2022/09/30 05:51:51;;;;;;;6.03;5.40;;;;;;;9.72;63.84;100705.69;4859615;28;97090;-50
2022/09/30 05:54:16;;;;;;;6.10;5.20;;;;;;;9.74;63.72;100706.72;4867620;28;97069;-50
2022/09/30 05:56:42;;;;;;;6.80;5.50;;;;;;;9.76;63.76;100711.75;4846696;28;96919;-50
2022/09/30 05:59:07;;;;;;;15.00;5.13;;;;;;;9.75;63.83;100713.75;4862367;28;98748;-50
2022/09/30 06:01:33;;;;;;;5.57;4.77;;;;;;;9.77;63.80;100722.25;4861686;28;97317;-51
2022/09/30 06:03:58;;;;;;;5.63;5.13;;;;;;;9.81;63.88;100727.53;4854386;28;96890;-50
2022/09/30 06:06:24;;;;;;;6.33;4.90;;;;;;;9.87;63.81;100735.84;4866512;28;96807;-50
2022/09/30 06:08:50;;;;;;;5.73;5.23;;;;;;;9.90;63.95;100741.09;4855554;28;97868;-50
2022/09/30 06:11:18;;;;;;;6.53;5.20;;;;;;;9.96;64.10;100739.16;4865087;28;97188;-50
2022/09/30 06:13:46;;;;;;;4.30;4.00;;;;;;;10.00;63.95;100739.72;4872108;28;96833;-50
2022/09/30 06:16:12;;;;;;;5.97;5.47;;;;;;;10.05;63.97;100739.00;4858346;28;97596;-50
2022/09/30 06:18:40;;;;;;;5.27;4.77;;;;;;;10.10;63.99;100745.78;4869416;28;98520;-50
2022/09/30 06:21:08;;;;;;;5.50;5.00;;;;;;;10.15;64.09;100740.38;4861176;28;97303;-51
2022/09/30 06:23:36;;;;;;;5.13;4.73;;;;;;;10.22;64.05;100750.19;4867078;28;98335;-50
2022/09/30 06:26:03;;;;;;;6.27;5.60;;;;;;;10.27;64.12;100741.97;4870731;28;97532;-50
2022/09/30 06:28:28;;;;;;;6.43;5.17;;;;;;;10.34;64.05;100751.78;4859150;28;98126;-50
2022/09/30 06:30:54;;;;;;;5.27;4.77;;;;;;;10.39;63.99;100749.06;4871605;28;107064;-50
2022/09/30 06:33:20;;;;;;;5.60;5.00;;;;;;;10.46;64.17;100742.38;4870143;28;108803;-50
2022/09/30 06:35:46;;;;;;;6.40;5.13;;;;;;;10.52;64.17;100743.94;4852918;28;98075;-50
2022/09/30 06:38:14;;;;;;;10.40;6.10;;;;;;;10.62;64.01;100754.72;4870611;28;97776;-50
2022/09/30 06:40:40;;;;;;;6.40;5.47;;;;;;;10.68;64.03;100747.28;4861301;28;96919;-50
2022/09/30 06:43:06;;;;;;;9.17;7.00;;;;;;;10.73;64.06;100747.31;4871807;28;97034;-50
2022/09/30 06:45:34;;;;;;;6.43;5.80;;;;;;;10.77;64.14;100750.56;4875287;28;98033;-50
2022/09/30 06:48:00;;;;;;;7.00;5.70;;;;;;;10.81;64.15;100753.84;4854869;28;98480;-50
2022/09/30 06:50:26;;;;;;;6.73;6.10;;;;;;;10.86;64.11;100760.63;4869771;28;96956;-50
2022/09/30 06:52:56;;;;;;;6.17;5.40;;;;;;;10.88;64.11;100753.41;4871987;28;96806;-50
2022/09/30 06:55:23;;;;;;;8.07;6.37;;;;;;;10.92;64.26;100761.44;4859391;28;96926;-50
2022/09/30 06:57:48;;;;;;;7.77;6.17;;;;;;;10.94;64.16;100753.44;4869365;28;102255;-50
2022/09/30 07:00:15;;;;;;;7.30;6.40;;;;;;;10.96;64.15;100750.94;4865502;28;96805;-51
2022/09/30 07:02:40;;;;;;;6.07;5.57;;;;;;;10.97;64.05;100753.22;4865022;28;97298;-50
2022/09/30 07:05:06;;;;;;;16.90;6.27;;;;;;;10.98;64.19;100753.97;4875590;28;97486;-50
2022/09/30 07:07:35;;;;;;;9.40;7.13;;;;;;;11.00;64.03;100757.75;4857064;28;97362;-50
2022/09/30 07:10:02;;;;;;;6.00;5.50;;;;;;;10.99;64.20;100750.72;4874096;28;97286;-50
2022/09/30 07:12:28;;;;;;;5.83;5.33;;;;;;;11.01;64.20;100752.97;4864636;28;97062;-50
2022/09/30 07:14:55;;;;;;;7.50;5.57;;;;;;;11.03;64.27;100758.75;4854346;28;96974;-50
2022/09/30 07:17:21;;;;;;;6.03;5.53;;;;;;;11.07;64.18;100756.53;4871183;28;96955;-50
2022/09/30 07:19:46;;;;;;;5.70;5.07;;;;;;;11.10;64.44;100761.03;4851948;28;97450;-50
2022/09/30 07:22:28;;;;;;;7.07;6.30;;;;;;;11.14;64.21;100756.78;4863448;28;97006;-50
2022/09/30 07:24:56;;;;;;;10.03;6.07;;;;;;;11.17;64.48;100755.81;4850861;28;97113;-50
2022/09/30 07:27:21;;;;;;;6.90;6.20;;;;;;;11.22;64.47;100757.09;4863346;28;97048;-50
2022/09/30 07:29:47;;;;;;;7.70;6.53;;;;;;;11.28;64.50;100768.88;4872609;28;98409;-51
2022/09/30 07:32:12;;;;;;;7.37;6.67;;;;;;;11.35;64.37;100760.16;4855629;28;96842;-50
2022/09/30 07:34:42;;;;;;;12.03;6.50;;;;;;;11.39;64.49;100757.16;4869278;28;96802;-50
2022/09/30 07:37:13;;;;;;;8.77;6.80;;;;;;;11.47;64.46;100761.69;4866468;28;97231;-50
2022/09/30 07:39:39;;;;;;;7.97;7.07;;;;;;;11.57;64.55;100760.25;4861212;28;101123;-50
2022/09/30 07:42:05;;;;;;;7.70;6.67;;;;;;;11.67;64.60;100758.78;4871851;28;97489;-50
2022/09/30 07:44:30;;;;;;;7.27;6.60;;;;;;;11.77;64.68;100756.56;4859686;28;97025;-50
2022/09/30 07:46:56;;;;;;;8.10;7.30;;;;;;;11.87;64.64;100764.09;4868492;28;97444;-50
2022/09/30 07:49:24;;;;;;;16.83;7.73;;;;;;;12.00;64.59;100761.63;4876700;28;96983;-50
2022/09/30 07:51:52;;;;;;;9.10;6.97;;;;;;;12.11;64.75;100763.63;4853221;28;97169;-50
2022/09/30 07:54:21;;;;;;;8.80;7.47;;;;;;;12.22;64.26;100769.16;4875458;28;97296;-50
2022/09/30 07:56:47;;;;;;;8.13;7.33;;;;;;;12.35;64.28;100774.94;4857334;28;98385;-50
2022/09/30 07:59:13;;;;;;;8.20;7.37;;;;;;;12.48;64.24;100777.19;4869914;28;97352;-50
2022/09/30 08:01:39;;;;;;;8.70;7.53;;;;;;;12.57;64.07;100779.69;4867163;28;96997;-50
2022/09/30 08:04:06;;;;;;;8.00;7.20;;;;;;;12.70;64.02;100790.97;4861554;28;97245;-49
2022/09/30 08:06:39;;;;;;;7.77;6.83;;;;;;;12.82;64.05;100797.97;4875738;28;97043;-50
2022/09/30 08:09:05;;;;;;;6.83;6.23;;;;;;;12.90;64.07;100790.72;4855642;28;97309;-51
2022/09/30 08:11:36;;;;;;;6.70;6.07;;;;;;;12.99;64.21;100793.22;4859318;28;97539;-50
2022/09/30 08:14:01;;;;;;;9.13;6.70;;;;;;;13.06;63.98;100794.72;4872094;28;96939;-50
2022/09/30 08:16:26;;;;;;;7.60;6.90;;;;;;;13.16;63.99;100798.72;4861438;28;97737;-50
2022/09/30 08:18:57;;;;;;;7.10;6.40;;;;;;;13.26;63.84;100792.41;4878906;28;97998;-50
2022/09/30 08:21:22;;;;;;;10.60;6.40;;;;;;;13.35;64.08;100789.34;4868053;28;97325;-50
2022/09/30 08:23:48;;;;;;;6.37;5.77;;;;;;;13.44;63.99;100797.38;4870784;28;96961;-50
2022/09/30 08:26:15;;;;;;;7.60;6.03;;;;;;;13.54;63.80;100800.59;4873867;28;97600;-50
2022/09/30 08:28:41;;;;;;;6.90;6.30;;;;;;;13.60;63.46;100798.56;4851461;28;97617;-50
2022/09/30 08:31:10;;;;;;;7.67;6.40;;;;;;;13.73;63.37;100800.75;4870279;28;103156;-54
2022/09/30 08:33:36;;;;;;;7.27;6.57;;;;;;;13.87;63.36;100802.47;4868025;28;96855;-50
2022/09/30 08:36:03;;;;;;;9.33;6.37;;;;;;;13.99;63.15;100795.59;4849408;28;97032;-50
2022/09/30 08:38:29;;;;;;;10.97;6.90;;;;;;;14.12;62.91;100804.06;4863565;28;97555;-50
2022/09/30 08:41:04;;;;;;;7.27;6.60;;;;;;;14.24;62.53;100809.00;4861420;28;96943;-50
2022/09/30 08:44:01;;;;;;;6.50;5.90;;;;;;;14.36;62.86;100806.19;4866082;28;98434;-50
2022/09/30 08:46:48;;;;;;;5.80;5.13;;;;;;;14.45;62.55;100805.88;4892881;28;100482;-50
2022/09/30 08:49:28;;;;;;;6.10;5.60;;;;;;;14.57;62.33;100810.78;4850468;28;100390;-50
2022/09/30 08:51:54;;;;;;;5.10;4.60;;;;;;;14.69;62.49;100809.44;4869697;28;96946;-50
2022/09/30 08:54:23;;;;;;;5.70;5.20;;;;;;;14.78;62.17;100809.13;4854609;28;96786;-50
2022/09/30 08:56:49;;;;;;;6.37;4.73;;;;;;;14.90;62.33;100818.06;4865300;28;97005;-50
2022/09/30 08:59:28;;;;;;;7.30;4.67;;;;;;;15.01;61.96;100815.94;4865727;28;100394;-50
2022/09/30 09:02:01;;;;;;;5.30;4.80;;;;;;;15.10;61.92;100814.09;4869049;28;98028;-50
2022/09/30 09:04:26;;;;;;;7.23;4.80;;;;;;;15.14;61.81;100811.78;4865057;28;97110;-50
2022/09/30 09:07:03;;;;;;;5.47;5.07;;;;;;;15.23;61.60;100814.19;4852181;28;98036;-50
2022/09/30 09:09:34;;;;;;;8.80;4.67;;;;;;;15.30;61.57;100816.41;4870804;28;102497;-50
2022/09/30 09:12:31;;;;;;;5.30;4.80;;;;;;;15.35;60.65;100821.13;4852864;28;97401;-50
2022/09/30 09:15:11;;;;;;;10.50;4.47;;;;;;;15.43;60.96;100813.72;4857208;28;97132;-50
2022/09/30 09:18:00;;;;;;;5.00;4.60;;;;;;;15.51;60.57;100817.44;4870966;28;96948;-51
2022/09/30 09:20:32;;;;;;;5.33;4.87;;;;;;;15.58;60.92;100814.06;4870726;28;102658;-50
2022/09/30 09:23:01;;;;;;;5.17;4.70;;;;;;;15.65;60.96;100817.03;4879646;28;98256;-51
2022/09/30 09:25:28;;;;;;;6.50;5.10;;;;;;;15.72;61.02;100815.69;4846815;28;97086;-50
2022/09/30 09:27:56;;;;;;;7.00;4.70;;;;;;;15.79;60.88;100817.84;4865836;28;97582;-51
2022/09/30 09:30:42;;;;;;;4.13;3.80;;;;;;;15.87;60.41;100820.78;4851195;28;98293;-50
2022/09/30 09:33:24;;;;;;;5.13;4.20;;;;;;;15.94;59.89;100817.41;4870392;28;97241;-50
2022/09/30 09:35:59;;;;;;;5.37;4.63;;;;;;;15.99;59.75;100822.13;4865628;28;98448;-50
2022/09/30 09:38:30;;;;;;;4.20;3.90;;;;;;;16.05;60.29;100823.56;4864514;28;101882;-50
2022/09/30 09:41:27;;;;;;;4.10;3.80;;;;;;;16.13;59.20;100820.91;4858313;28;102902;-51
2022/09/30 09:44:22;;;;;;;3.80;3.50;;;;;;;16.24;59.91;100821.50;4847825;28;97758;-50
2022/09/30 09:46:57;;;;;;;5.77;4.50;;;;;;;16.33;59.98;100817.59;4851463;28;96805;-50
2022/09/30 09:49:23;;;;;;;4.63;4.07;;;;;;;16.38;59.82;100816.75;4861484;28;97132;-50
2022/09/30 09:52:06;;;;;;;4.10;3.80;;;;;;;16.45;58.89;100814.09;4868825;28;97122;-50
2022/09/30 09:54:40;;;;;;;4.30;3.90;;;;;;;16.53;59.08;100803.16;4870437;28;96969;-51
2022/09/30 09:57:10;;;;;;;4.20;3.90;;;;;;;16.59;59.52;100803.06;4858527;28;97345;-50
2022/09/30 09:59:38;;;;;;;4.30;4.00;;;;;;;16.66;59.18;100808.00;4862508;28;98173;-50
2022/09/30 10:02:22;;;;;;;4.50;4.10;;;;;;;16.74;57.67;100814.44;4863298;28;98353;-50
2022/09/30 10:04:58;;;;;;;4.77;4.40;;;;;;;16.83;59.08;100811.25;4872945;28;97262;-50
2022/09/30 10:07:24;;;;;;;3.27;2.97;;;;;;;16.90;59.06;100819.72;4854016;28;97041;-50
2022/09/30 10:10:17;;;;;;;3.77;3.33;;;;;;;16.93;57.56;100820.66;4864669;28;97643;-50
2022/09/30 10:12:44;;;;;;;4.80;3.40;;;;;;;16.95;58.63;100823.66;4857618;28;98046;-50
2022/09/30 10:15:25;;;;;;;3.20;2.97;;;;;;;17.02;57.26;100818.22;4858641;28;96948;-50
2022/09/30 10:17:56;;;;;;;3.47;3.17;;;;;;;17.09;57.47;100811.28;4853770;28;97232;-50
2022/09/30 10:20:25;;;;;;;5.97;3.00;;;;;;;17.11;58.20;100817.81;4868354;28;97332;-51
2022/09/30 10:23:00;;;;;;;3.70;3.43;;;;;;;17.16;56.47;100818.97;4850821;28;97394;-50
2022/09/30 10:25:25;;;;;;;3.53;3.00;;;;;;;17.15;57.88;100817.47;4873763;28;96769;-50
2022/09/30 10:28:00;;;;;;;4.00;3.70;;;;;;;17.17;56.79;100829.56;4864056;28;96907;-52
2022/09/30 10:30:43;;;;;;;3.73;3.43;;;;;;;17.17;56.72;100821.22;4863768;28;97079;-50
2022/09/30 10:33:22;;;;;;;3.37;3.17;;;;;;;17.15;56.62;100823.03;4853132;28;99993;-50
2022/09/30 10:35:54;;;;;;;3.83;3.47;;;;;;;17.14;57.06;100819.53;4867519;28;96867;-51
2022/09/30 10:38:22;;;;;;;3.47;3.17;;;;;;;17.18;57.43;100811.59;4850540;28;96912;-50
2022/09/30 10:40:50;;;;;;;3.17;2.97;;;;;;;17.18;57.32;100816.41;4869007;28;97671;-51
2022/09/30 10:43:30;;;;;;;4.70;3.40;;;;;;;17.20;56.24;100825.72;4863826;28;97225;-50
2022/09/30 10:46:01;;;;;;;3.03;2.83;;;;;;;17.27;57.29;100821.56;4857610;28;96988;-50
2022/09/30 10:48:30;;;;;;;4.90;3.30;;;;;;;17.35;57.06;100818.88;4860607;28;97231;-50
2022/09/30 10:50:56;;;;;;;3.70;3.40;;;;;;;17.42;56.96;100829.34;4863908;28;97206;-50
2022/09/30 10:53:25;;;;;;;4.13;3.80;;;;;;;17.44;56.79;100824.75;4865912;28;100244;-50
2022/09/30 10:55:53;;;;;;;3.03;2.73;;;;;;;17.43;56.71;100825.31;4851295;28;97060;-50
2022/09/30 10:58:53;;;;;;;2.90;2.70;;;;;;;17.47;55.33;100820.91;4868749;28;97260;-51
2022/09/30 11:01:27;;;;;;;3.63;2.57;;;;;;;17.58;55.97;100817.91;4864599;28;100771;-50
2022/09/30 11:04:02;;;;;;;4.50;2.80;;;;;;;17.69;55.36;100820.47;4856215;28;97517;-52
2022/09/30 11:06:32;;;;;;;2.57;2.37;;;;;;;17.79;55.76;100824.31;4871389;28;97184;-51
2022/09/30 11:09:00;;;;;;;3.23;2.40;;;;;;;17.96;56.09;100821.91;4866646;28;96937;-51
2022/09/30 11:12:07;;;;;;;3.73;2.80;;;;;;;18.12;52.85;100828.41;4869215;28;101703;-51
2022/09/30 11:14:42;;;;;;;2.63;2.50;;;;;;;18.09;54.49;100815.56;4866116;28;101628;-51
2022/09/30 11:17:41;;;;;;;2.80;2.60;;;;;;;18.19;53.66;100821.41;4870667;28;97197;-50
2022/09/30 11:20:25;;;;;;;8.93;2.90;;;;;;;18.37;54.13;100817.72;4878407;28;97084;-50
2022/09/30 11:22:58;;;;;;;3.40;3.20;;;;;;;18.40;54.70;100822.19;4868266;28;101816;-51
2022/09/30 11:25:58;;;;;;;3.60;3.03;;;;;;;18.52;53.51;100813.03;4869152;28;97768;-51
2022/09/30 11:28:23;;;;;;;5.87;2.60;;;;;;;18.69;54.98;100821.00;4865180;28;97205;-51
2022/09/30 11:30:51;;;;;;;3.80;3.37;;;;;;;18.85;54.71;100819.81;4853321;28;97019;-50
2022/09/30 11:33:36;;;;;;;3.70;3.40;;;;;;;18.91;52.71;100820.44;4870857;28;96767;-51
2022/09/30 11:36:32;;;;;;;3.30;3.00;;;;;;;19.02;53.05;100819.41;4854179;28;97625;-52
2022/09/30 11:39:06;;;;;;;3.27;2.97;;;;;;;19.18;52.77;100810.56;4853152;28;97013;-50
2022/09/30 11:41:39;;;;;;;3.20;3.00;;;;;;;19.32;52.86;100811.97;4870706;28;97346;-51
2022/09/30 11:44:25;;;;;;;3.73;2.87;;;;;;;19.51;52.27;100805.38;4852730;28;97580;-51
2022/09/30 11:47:08;;;;;;;8.30;2.90;;;;;;;19.70;52.35;100803.06;4877431;28;102704;-51